LKPR - Praha Ruzyně, Česká republika
Vzdálenost od této stanice: ZSZ 177km
Aktualizováno: 13.12.2017 23:00
 
Teplota vzduchu: 2°C
Chlad větru: -3°C
Vítr: J 22 km/h
Rosný bod: -5°C
Vlhkost vzduchu: 60%
Tlak vzduchu: 999 hPa
Oblačnost: skoro jasno
Viditelnost: 10 km
Detaily oblačnosti: skoro jasno 1463 m
2017/12/13 22:00 LKPR 132200Z 18012KT 9999 FEW048 02/M05 Q0999 NOSIG
LKTB - Brno Tuřany, Česká republika
Vzdálenost od této stanice: VJV 28km
Aktualizováno: 13.12.2017 23:00
 
Teplota vzduchu: 1°C
Chlad větru: -2°C
Vítr: JJV 9 km/h
Rosný bod: -3°C
Vlhkost vzduchu: 75%
Tlak vzduchu: 1006 hPa
Stav počasí: Jasno
Oblačnost: jasná obloha
Viditelnost: více než 10 km
2017/12/13 22:00 LKTB 132200Z 16005KT CAVOK 01/M03 Q1006 NOSIG
 
LKKV - Karlovy Vary, Česká republika
Vzdálenost od této stanice: SZ 268km
Aktualizováno: 13.12.2017 23:00
 
Teplota vzduchu: 0°C
Chlad větru: -3°C
Vítr: J 9 km/h
Rosný bod: -2°C
Vlhkost vzduchu: 87%
Tlak vzduchu: 997 hPa
Stav počasí: slabý sníh
Oblačnost: zataženo
Viditelnost: 10 km
Detaily oblačnosti: skoro zataženo 274 m
zataženo 396 m
2017/12/13 22:00 LKKV 132200Z 19005KT 140V250 9999 -SN BKN009 OVC013 M00/M02 Q0997 R29///////
LKMT - Ostrava Mošnov, Česká republika
Vzdálenost od této stanice: VSV 136km
Aktualizováno: 13.12.2017 23:00
 
Teplota vzduchu: 2°C
Chlad větru: -3°C
Vítr: JJZ 26 km/h
Rosný bod: -4°C
Vlhkost vzduchu: 65%
Tlak vzduchu: 1006 hPa
Stav počasí: Jasno
Oblačnost: jasná obloha
Viditelnost: více než 10 km
2017/12/13 22:00 LKMT 132200Z 21014KT CAVOK 02/M04 Q1006 NOSIG
 
LKPD - Pardubice, Česká republika
Vzdálenost od této stanice: SSZ 97km
Aktualizováno: 13.12.2017 23:00
 
Teplota vzduchu: 3°C
Chlad větru: -2°C
Vítr: J 22 km/h
Rosný bod: -3°C
Vlhkost vzduchu: 65%
Tlak vzduchu: 1002 hPa
Stav počasí: Jasno
Oblačnost: jasná obloha
Viditelnost: více než 10 km
2017/12/13 22:00 LKPD 132200Z 17012KT CAVOK 03/M03 Q1002 RMK BLU
LKKB - Praha Kbely, Česká republika
Vzdálenost od této stanice: SZ 162km
Aktualizováno: 13.12.2017 23:00
 
Teplota vzduchu: 2°C
Chlad větru: -2°C
Vítr: J 19 km/h
Rosný bod: -6°C
Vlhkost vzduchu: 56%
Tlak vzduchu: 1001 hPa
Stav počasí: Jasno
Oblačnost: jasná obloha
Viditelnost: více než 10 km
2017/12/13 22:00 LKKB 132200Z 19010KT CAVOK 02/M06 Q1001
 
LKCV - Čáslav, Česká republika
Vzdálenost od této stanice: SZ 103km
Aktualizováno: 13.12.2017 23:00
 
Teplota vzduchu: 3°C
Chlad větru: -2°C
Vítr: JJV 20 km/h
Rosný bod: -3°C
Vlhkost vzduchu: 65%
Tlak vzduchu: 1002 hPa
Stav počasí: Jasno
Oblačnost: jasná obloha
Viditelnost: více než 10 km
2017/12/13 22:00 LKCV 132200Z 16011KT CAVOK 03/M03 Q1002 NOSIG RMK BLU BLU
LKNA - Náměšť n. Osl., Česká republika
Vzdálenost od této stanice: ZJZ 19km
Aktualizováno: 13.12.2017 23:00
 
Teplota vzduchu: -2°C
Chlad větru: -7°C
Vítr: JV 17 km/h
Rosný bod: -2°C
Vlhkost vzduchu: 100%
Tlak vzduchu: 1004 hPa
Oblačnost: zataženo
Viditelnost: 10 km
Detaily oblačnosti: oblačno 122 m
zataženo 2743 m
2017/12/13 22:00 LKNA 132200Z 13009KT 9999 SCT004 OVC090 M02/M02 Q1004 RMK BLU
 
LKLN - Plzeň Líně, Česká republika
Vzdálenost od této stanice: Z 228km
Aktualizováno: 13.12.2017 23:02
 
Teplota vzduchu: 2°C
Chlad větru: -3°C
Vítr: JJZ 24 km/h
Rosný bod: 0°C
Vlhkost vzduchu: 87%
Tlak vzduchu: 1000 hPa
Oblačnost: zataženo
Viditelnost: 10 km
Detaily oblačnosti: skoro zataženo 427 m
zataženo 640 m
2017/12/13 22:02 LKLN 132202Z AUTO 21013KT 9999 BKN014 OVC021 02/M00 Q1000
LKVO - Vodochody, Česká republika
Vzdálenost od této stanice: SZ 177km
Aktualizováno: 13.12.2017 15:00
Není aktuální
 
Teplota vzduchu: 4°C
Chlad větru: 1°C
Vítr: J 15 km/h
Rosný bod: -4°C
Vlhkost vzduchu: 56%
Tlak vzduchu: 1010 hPa
Stav počasí: Jasno
Oblačnost: jasná obloha
Viditelnost: více než 10 km
2017/12/13 14:00 LKVO 131400Z 17008KT CAVOK 04/M04 Q1010